createdAt,value
2018-12-12T00:00:32.516Z,0.00
2018-12-12T00:01:31.503Z,0.00
2018-12-12T00:02:31.408Z,0.00
2018-12-12T00:03:31.648Z,0.00
2018-12-12T00:04:31.538Z,0.00
2018-12-12T00:05:31.452Z,0.00
2018-12-12T00:07:55.511Z,0.00
2018-12-12T00:08:55.435Z,0.00
2018-12-12T00:09:55.641Z,0.00
2018-12-12T00:10:55.208Z,0.00
2018-12-12T00:11:55.120Z,0.00
2018-12-12T00:12:55.651Z,0.00
2018-12-12T00:13:55.552Z,0.00
2018-12-12T00:14:55.149Z,0.00
2018-12-12T00:15:55.362Z,0.00
2018-12-12T00:16:55.265Z,0.00
2018-12-12T00:17:56.096Z,0.00
2018-12-12T00:18:55.391Z,0.00
2018-12-12T00:19:55.717Z,0.00
2018-12-12T00:20:55.200Z,0.00
2018-12-12T00:23:17.780Z,0.00
2018-12-12T00:24:17.635Z,0.00
2018-12-12T00:25:17.712Z,0.00
2018-12-12T00:26:17.445Z,0.00
2018-12-12T00:27:17.352Z,0.00
2018-12-12T00:28:17.719Z,0.00
2018-12-12T00:29:17.737Z,0.00
2018-12-12T00:30:17.372Z,0.00
2018-12-12T00:31:17.896Z,0.00
2018-12-12T00:32:17.492Z,0.00
2018-12-12T00:33:17.391Z,0.00
2018-12-12T00:34:17.603Z,0.00
2018-12-12T00:35:18.121Z,0.00
2018-12-12T00:36:17.410Z,0.00
2018-12-12T00:38:40.778Z,0.00
2018-12-12T00:39:40.487Z,0.00
2018-12-12T00:40:40.380Z,0.00
2018-12-12T00:41:40.289Z,0.00
2018-12-12T00:42:40.498Z,0.00
2018-12-12T00:43:40.400Z,0.00
2018-12-12T00:44:40.728Z,0.00
2018-12-12T00:45:40.225Z,0.00
2018-12-12T00:46:40.430Z,0.00
2018-12-12T00:47:40.336Z,0.00
2018-12-12T00:48:42.083Z,0.00
2018-12-12T00:49:40.151Z,0.00
2018-12-12T00:50:40.359Z,0.00
2018-12-12T00:51:40.267Z,0.00
2018-12-12T00:54:03.726Z,0.00
2018-12-12T00:55:03.668Z,0.00
2018-12-12T00:56:03.539Z,0.00
2018-12-12T00:57:04.682Z,0.00
2018-12-12T00:58:03.661Z,0.00
2018-12-12T00:59:03.555Z,0.00
2018-12-12T01:00:03.760Z,0.00
2018-12-12T01:01:03.681Z,0.00
2018-12-12T01:02:03.587Z,0.00
2018-12-12T01:03:03.793Z,0.00
2018-12-12T01:04:03.754Z,0.00
2018-12-12T01:05:03.611Z,0.00
2018-12-12T01:06:03.756Z,0.00
2018-12-12T01:07:03.722Z,0.00
2018-12-12T01:09:17.792Z,0.00
2018-12-12T01:10:16.768Z,0.00
2018-12-12T01:11:16.766Z,0.00
2018-12-12T01:12:16.762Z,0.00
2018-12-12T01:13:16.664Z,0.00
2018-12-12T01:14:16.567Z,0.00
2018-12-12T01:15:17.086Z,0.00
2018-12-12T01:16:16.695Z,0.00
2018-12-12T01:17:16.592Z,0.00
2018-12-12T01:18:16.501Z,0.00
2018-12-12T01:19:16.712Z,0.00
2018-12-12T01:20:16.776Z,0.00
2018-12-12T01:21:16.778Z,0.00
2018-12-12T01:22:16.742Z,0.00
2018-12-12T01:24:28.829Z,0.00
2018-12-12T01:25:28.741Z,0.00
2018-12-12T01:26:28.637Z,0.00
2018-12-12T01:27:28.851Z,0.00
2018-12-12T01:28:28.764Z,0.00
2018-12-12T01:29:28.816Z,0.00
2018-12-12T01:30:28.775Z,0.00
2018-12-12T01:31:28.783Z,0.00
2018-12-12T01:32:28.800Z,0.00
2018-12-12T01:33:28.807Z,0.00
2018-12-12T01:34:29.124Z,0.00
2018-12-12T01:35:28.811Z,0.00
2018-12-12T01:36:28.648Z,0.00
2018-12-12T01:37:28.803Z,0.00
2018-12-12T01:39:40.816Z,0.00
2018-12-12T01:40:41.472Z,0.00
2018-12-12T01:41:40.788Z,0.00
2018-12-12T01:42:40.796Z,0.00
2018-12-12T01:43:40.789Z,0.00
2018-12-12T01:44:40.764Z,0.00
2018-12-12T01:45:40.797Z,0.00
2018-12-12T01:46:40.569Z,0.00
2018-12-12T01:47:40.796Z,0.00
2018-12-12T01:48:40.697Z,0.00
2018-12-12T01:49:40.603Z,0.00
2018-12-12T01:50:41.120Z,0.00
2018-12-12T01:51:40.829Z,0.00
2018-12-12T01:52:40.617Z,0.00
2018-12-12T01:54:50.552Z,0.00
2018-12-12T01:55:50.808Z,0.00
2018-12-12T01:56:50.675Z,0.00
2018-12-12T01:57:50.816Z,0.00
2018-12-12T01:58:50.487Z,0.00
2018-12-12T01:59:50.394Z,0.00
2018-12-12T02:00:50.811Z,0.00
2018-12-12T02:01:50.527Z,0.00
2018-12-12T02:02:50.821Z,0.00
2018-12-12T02:03:50.316Z,0.00
2018-12-12T02:04:50.553Z,0.00
2018-12-12T02:05:50.135Z,0.00
2018-12-12T02:06:50.347Z,0.00
2018-12-12T02:07:50.250Z,0.00
2018-12-12T02:10:02.934Z,0.00
2018-12-12T02:11:03.821Z,0.00
2018-12-12T02:12:02.907Z,0.00
2018-12-12T02:13:02.887Z,0.00
2018-12-12T02:14:02.873Z,0.00
2018-12-12T02:15:02.862Z,0.00
2018-12-12T02:16:02.847Z,0.00
2018-12-12T02:17:02.855Z,0.00
2018-12-12T02:18:03.117Z,0.00
2018-12-12T02:19:02.856Z,0.00
2018-12-12T02:20:02.833Z,0.00
2018-12-12T02:21:03.143Z,0.00
2018-12-12T02:22:03.053Z,0.00
2018-12-12T02:23:02.846Z,0.00
2018-12-12T02:25:26.872Z,0.00
2018-12-12T02:26:27.844Z,0.00
2018-12-12T02:27:26.835Z,0.00
2018-12-12T02:28:26.846Z,0.00
2018-12-12T02:29:26.649Z,0.00
2018-12-12T02:30:26.858Z,0.00
2018-12-12T02:31:26.863Z,0.00
2018-12-12T02:32:26.669Z,0.00
2018-12-12T02:33:26.575Z,0.00
2018-12-12T02:34:26.791Z,0.00
2018-12-12T02:35:26.706Z,0.00
2018-12-12T02:36:26.597Z,0.00
2018-12-12T02:37:26.808Z,0.00
2018-12-12T02:38:26.735Z,0.00
2018-12-12T02:40:36.671Z,0.00
2018-12-12T02:41:36.565Z,0.00
2018-12-12T02:42:36.774Z,0.00
2018-12-12T02:43:36.390Z,0.00
2018-12-12T02:44:36.279Z,0.00
2018-12-12T02:45:36.492Z,0.00
2018-12-12T02:46:36.396Z,0.00
2018-12-12T02:47:36.297Z,0.00
2018-12-12T02:48:36.815Z,0.00
2018-12-12T02:49:36.423Z,0.00
2018-12-12T02:50:36.629Z,0.00
2018-12-12T02:51:36.223Z,0.00
2018-12-12T02:52:36.449Z,0.00
2018-12-12T02:53:36.344Z,0.00
2018-12-12T02:56:09.650Z,0.00
2018-12-12T02:57:09.871Z,0.00
2018-12-12T02:58:09.456Z,0.00
2018-12-12T02:59:09.358Z,0.00
2018-12-12T03:00:09.272Z,0.00
2018-12-12T03:01:09.476Z,0.00
2018-12-12T03:02:09.689Z,0.00
2018-12-12T03:03:09.286Z,0.00
2018-12-12T03:04:09.521Z,0.00
2018-12-12T03:05:09.217Z,0.00
2018-12-12T03:06:09.887Z,0.00
2018-12-12T03:07:09.228Z,0.00
2018-12-12T03:08:09.900Z,0.00
2018-12-12T03:09:09.351Z,0.00
2018-12-12T03:11:22.923Z,0.00
2018-12-12T03:12:22.884Z,0.00
2018-12-12T03:13:22.893Z,0.00
2018-12-12T03:14:22.677Z,0.00
2018-12-12T03:15:22.898Z,0.00
2018-12-12T03:16:22.801Z,0.00
2018-12-12T03:17:22.712Z,0.00
2018-12-12T03:18:23.560Z,0.00
2018-12-12T03:19:22.926Z,0.00
2018-12-12T03:20:22.895Z,0.00
2018-12-12T03:21:22.636Z,0.00
2018-12-12T03:22:22.858Z,0.00
2018-12-12T03:23:22.756Z,0.00
2018-12-12T03:24:22.909Z,0.00
2018-12-12T03:26:34.935Z,0.00
2018-12-12T03:27:34.921Z,0.00
2018-12-12T03:28:34.873Z,0.00
2018-12-12T03:29:34.775Z,0.00
2018-12-12T03:30:34.993Z,0.00
2018-12-12T03:31:34.904Z,0.00
2018-12-12T03:32:34.801Z,0.00
2018-12-12T03:33:34.701Z,0.00
2018-12-12T03:34:34.601Z,0.00
2018-12-12T03:35:34.920Z,0.00
2018-12-12T03:36:34.924Z,0.00
2018-12-12T03:37:34.935Z,0.00
2018-12-12T03:38:34.844Z,0.00
2018-12-12T03:39:34.751Z,0.00
2018-12-12T03:40:34.647Z,0.00
2018-12-12T03:42:46.961Z,0.00
2018-12-12T03:43:46.921Z,0.00
2018-12-12T03:44:46.922Z,0.00
2018-12-12T03:45:46.765Z,0.00
2018-12-12T03:46:46.672Z,0.00
2018-12-12T03:47:46.879Z,0.00
2018-12-12T03:48:46.919Z,0.00
2018-12-12T03:49:46.918Z,0.00
2018-12-12T03:50:46.911Z,0.00
2018-12-12T03:51:46.820Z,0.00
2018-12-12T03:52:46.714Z,0.00
2018-12-12T03:53:47.053Z,0.00
2018-12-12T03:54:46.941Z,0.00
2018-12-12T03:55:46.935Z,0.00
2018-12-12T03:57:59.755Z,0.00
2018-12-12T03:59:00.273Z,0.00
2018-12-12T03:59:59.868Z,0.00
2018-12-12T04:00:59.775Z,0.00
2018-12-12T04:01:59.681Z,0.00
2018-12-12T04:02:59.894Z,0.00
2018-12-12T04:03:59.934Z,0.00
2018-12-12T04:04:59.966Z,0.00
2018-12-12T04:05:59.911Z,0.00
2018-12-12T04:06:59.818Z,0.00
2018-12-12T04:07:59.721Z,0.00
2018-12-12T04:08:59.626Z,0.00
2018-12-12T04:09:59.950Z,0.00
2018-12-12T04:10:59.754Z,0.00
2018-12-12T04:13:24.980Z,0.00
2018-12-12T04:14:24.958Z,0.00
2018-12-12T04:15:25.782Z,0.00
2018-12-12T04:16:24.697Z,0.00
2018-12-12T04:17:24.988Z,0.00
2018-12-12T04:18:24.898Z,0.00
2018-12-12T04:19:24.793Z,0.00
2018-12-12T04:20:24.702Z,0.00
2018-12-12T04:21:24.918Z,0.00
2018-12-12T04:22:24.824Z,0.00
2018-12-12T04:23:25.005Z,0.00
2018-12-12T04:24:24.645Z,0.00
2018-12-12T04:25:24.854Z,0.00
2018-12-12T04:26:24.760Z,0.00
2018-12-12T04:28:36.962Z,0.00
2018-12-12T04:29:36.747Z,0.00
2018-12-12T04:30:36.969Z,0.00
2018-12-12T04:31:36.989Z,0.00
2018-12-12T04:32:37.005Z,0.00
2018-12-12T04:33:36.959Z,0.00
2018-12-12T04:34:36.983Z,0.00
2018-12-12T04:35:36.499Z,0.00
2018-12-12T04:36:36.707Z,0.00
2018-12-12T04:37:36.608Z,0.00
2018-12-12T04:38:37.014Z,0.00
2018-12-12T04:39:36.723Z,0.00
2018-12-12T04:40:37.010Z,0.00
2018-12-12T04:41:36.980Z,0.00
2018-12-12T04:43:49.031Z,0.00
2018-12-12T04:44:48.971Z,0.00
2018-12-12T04:45:48.740Z,0.00
2018-12-12T04:46:48.652Z,0.00
2018-12-12T04:47:50.887Z,0.00
2018-12-12T04:48:48.761Z,0.00
2018-12-12T04:49:49.002Z,0.00
2018-12-12T04:50:48.990Z,0.00
2018-12-12T04:51:48.792Z,0.00
2018-12-12T04:52:48.706Z,0.00
2018-12-12T04:53:48.619Z,0.00
2018-12-12T04:54:48.503Z,0.00
2018-12-12T04:55:48.985Z,0.00
2018-12-12T04:56:48.648Z,0.00
2018-12-12T04:59:00.718Z,0.00
2018-12-12T05:00:00.643Z,0.00
2018-12-12T05:01:00.835Z,0.00
2018-12-12T05:02:00.429Z,0.00
2018-12-12T05:03:01.409Z,0.00
2018-12-12T05:04:00.860Z,0.00
2018-12-12T05:05:00.451Z,0.00
2018-12-12T05:06:00.361Z,0.00
2018-12-12T05:07:00.873Z,0.00
2018-12-12T05:08:00.475Z,0.00
2018-12-12T05:09:01.000Z,0.00
2018-12-12T05:10:00.607Z,0.00
2018-12-12T05:11:00.500Z,0.00
2018-12-12T05:12:00.404Z,0.00
2018-12-12T05:14:13.033Z,0.00
2018-12-12T05:15:13.008Z,0.00
2018-12-12T05:16:12.922Z,0.00
2018-12-12T05:17:13.006Z,0.00
2018-12-12T05:18:13.018Z,0.00
2018-12-12T05:19:12.945Z,0.00
2018-12-12T05:20:13.030Z,0.00
2018-12-12T05:21:13.016Z,0.00
2018-12-12T05:22:12.990Z,0.00
2018-12-12T05:23:13.036Z,0.00
2018-12-12T05:24:12.792Z,0.00
2018-12-12T05:25:12.696Z,0.00
2018-12-12T05:26:12.932Z,0.00
2018-12-12T05:27:12.814Z,0.00
2018-12-12T05:29:24.904Z,0.00
2018-12-12T05:30:24.818Z,0.00
2018-12-12T05:31:24.712Z,0.00
2018-12-12T05:32:24.611Z,0.00
2018-12-12T05:33:24.521Z,0.00
2018-12-12T05:34:25.020Z,0.00
2018-12-12T05:35:24.643Z,0.00
2018-12-12T05:36:24.549Z,0.00
2018-12-12T05:37:24.765Z,0.00
2018-12-12T05:38:24.664Z,0.00
2018-12-12T05:39:24.574Z,0.00
2018-12-12T05:40:25.191Z,0.00
2018-12-12T05:41:24.683Z,0.00
2018-12-12T05:42:24.592Z,0.00
2018-12-12T05:44:48.978Z,0.00
2018-12-12T05:45:48.077Z,0.00
2018-12-12T05:46:47.868Z,0.00
2018-12-12T05:47:47.769Z,0.00
2018-12-12T05:48:47.680Z,0.00
2018-12-12T05:49:47.885Z,0.00
2018-12-12T05:50:48.054Z,0.00
2018-12-12T05:51:47.705Z,0.00
2018-12-12T05:52:47.903Z,0.00
2018-12-12T05:53:47.811Z,0.00
2018-12-12T05:54:47.746Z,0.00
2018-12-12T05:55:47.624Z,0.00
2018-12-12T05:56:52.327Z,0.00
2018-12-12T05:57:47.759Z,0.00
2018-12-12T06:00:01.062Z,0.00
2018-12-12T06:01:00.970Z,0.00
2018-12-12T06:02:01.081Z,0.00
2018-12-12T06:03:00.775Z,0.00
2018-12-12T06:04:01.054Z,0.00
2018-12-12T06:05:00.901Z,0.00
2018-12-12T06:06:01.070Z,0.00
2018-12-12T06:07:00.714Z,0.00
2018-12-12T06:08:00.921Z,0.00
2018-12-12T06:09:01.114Z,0.00
2018-12-12T06:10:00.737Z,0.00
2018-12-12T06:11:00.639Z,0.00
2018-12-12T06:12:00.854Z,0.00
2018-12-12T06:13:01.065Z,0.00
2018-12-12T06:15:26.078Z,0.00
2018-12-12T06:16:24.740Z,0.00
2018-12-12T06:17:24.644Z,0.00
2018-12-12T06:18:24.551Z,0.00
2018-12-12T06:19:25.105Z,0.00
2018-12-12T06:20:24.919Z,0.00
2018-12-12T06:21:24.582Z,0.00
2018-12-12T06:22:24.488Z,0.00
2018-12-12T06:23:24.640Z,0.00
2018-12-12T06:24:24.607Z,0.00
2018-12-12T06:25:24.809Z,0.00
2018-12-12T06:26:24.722Z,4.00
2018-12-12T06:27:25.372Z,4.00
2018-12-12T06:28:24.529Z,4.00
2018-12-12T06:29:24.445Z,0.00
2018-12-12T06:32:10.005Z,4.00
2018-12-12T06:33:09.917Z,4.00
2018-12-12T06:34:10.128Z,4.00
2018-12-12T06:35:09.725Z,4.00
2018-12-12T06:36:09.966Z,8.00
2018-12-12T06:37:09.844Z,4.00
2018-12-12T06:38:09.745Z,8.00
2018-12-12T06:39:09.653Z,8.00
2018-12-12T06:40:09.871Z,8.00
2018-12-12T06:41:09.769Z,8.00
2018-12-12T06:42:10.105Z,8.00
2018-12-12T06:43:09.585Z,12.00
2018-12-12T06:44:09.799Z,12.00
2018-12-12T06:46:33.263Z,20.00
2018-12-12T06:47:33.152Z,20.00
2018-12-12T06:48:33.108Z,20.00
2018-12-12T06:49:32.964Z,28.00
2018-12-12T06:50:32.878Z,28.00
2018-12-12T06:51:33.124Z,32.00
2018-12-12T06:52:33.002Z,32.00
2018-12-12T06:53:33.109Z,40.00
2018-12-12T06:54:33.153Z,44.00
2018-12-12T06:55:33.019Z,48.00
2018-12-12T06:56:32.924Z,52.00
2018-12-12T06:57:32.842Z,60.00
2018-12-12T06:58:33.142Z,60.00
2018-12-12T06:59:32.949Z,64.00
2018-12-12T07:01:56.152Z,80.00
2018-12-12T07:02:56.005Z,92.00
2018-12-12T07:03:55.906Z,100.00
2018-12-12T07:04:55.835Z,108.00
2018-12-12T07:05:56.037Z,112.00
2018-12-12T07:06:55.930Z,124.00
2018-12-12T07:07:55.841Z,136.00
2018-12-12T07:08:56.205Z,156.00
2018-12-12T07:09:56.148Z,168.00
2018-12-12T07:10:55.864Z,176.00
2018-12-12T07:11:56.132Z,192.00
2018-12-12T07:12:56.197Z,212.00
2018-12-12T07:13:55.888Z,228.00
2018-12-12T07:14:56.213Z,248.00
2018-12-12T07:17:20.136Z,284.00
2018-12-12T07:18:19.769Z,296.00
2018-12-12T07:19:19.675Z,308.00
2018-12-12T07:20:19.578Z,324.00
2018-12-12T07:21:20.138Z,336.00
2018-12-12T07:22:20.008Z,360.00
2018-12-12T07:23:20.171Z,388.00
2018-12-12T07:24:19.507Z,420.00
2018-12-12T07:25:19.720Z,452.00
2018-12-12T07:26:19.627Z,484.00
2018-12-12T07:27:19.527Z,508.00
2018-12-12T07:28:19.402Z,544.00
2018-12-12T07:29:20.171Z,568.00
2018-12-12T07:30:19.858Z,588.00
2018-12-12T07:32:32.163Z,620.00
2018-12-12T07:33:32.477Z,636.00
2018-12-12T07:34:32.074Z,660.00
2018-12-12T07:35:31.975Z,636.00
2018-12-12T07:36:31.881Z,632.00
2018-12-12T07:37:32.086Z,660.00
2018-12-12T07:38:32.000Z,688.00
2018-12-12T07:39:32.157Z,724.00
2018-12-12T07:40:32.144Z,756.00
2018-12-12T07:41:32.018Z,776.00
2018-12-12T07:42:31.925Z,788.00
2018-12-12T07:43:31.823Z,812.00
2018-12-12T07:44:32.052Z,856.00
2018-12-12T07:45:32.167Z,912.00
2018-12-12T07:46:32.179Z,964.00
2018-12-12T07:48:54.087Z,960.00
2018-12-12T07:49:54.008Z,940.00
2018-12-12T07:50:53.894Z,928.00
2018-12-12T07:51:53.796Z,908.00
2018-12-12T07:52:53.702Z,920.00
2018-12-12T07:53:53.913Z,948.00
2018-12-12T07:54:54.168Z,976.00
2018-12-12T07:55:53.725Z,1008.00
2018-12-12T07:56:53.937Z,1004.00
2018-12-12T07:57:53.842Z,964.00
2018-12-12T07:58:53.744Z,980.00
2018-12-12T07:59:53.650Z,996.00
2018-12-12T08:00:54.206Z,992.00
2018-12-12T08:01:53.768Z,1044.00
2018-12-12T08:04:18.774Z,1276.00
2018-12-12T08:05:17.771Z,1352.00
2018-12-12T08:06:17.665Z,1376.00
2018-12-12T08:07:17.560Z,1404.00
2018-12-12T08:08:17.784Z,1472.00
2018-12-12T08:09:17.678Z,1520.00
2018-12-12T08:10:18.257Z,1564.00
2018-12-12T08:11:17.445Z,1636.00
2018-12-12T08:12:18.014Z,1708.00
2018-12-12T08:13:17.616Z,1804.00
2018-12-12T08:14:17.514Z,1908.00
2018-12-12T08:15:17.419Z,1996.00
2018-12-12T08:16:17.642Z,2036.00
2018-12-12T08:18:30.201Z,2104.00
2018-12-12T08:19:30.247Z,2108.00
2018-12-12T08:20:30.206Z,2144.00
2018-12-12T08:21:30.065Z,2164.00
2018-12-12T08:22:30.203Z,2148.00
2018-12-12T08:23:30.211Z,2168.00
2018-12-12T08:24:30.083Z,2172.00
2018-12-12T08:25:30.122Z,2172.00
2018-12-12T08:26:29.896Z,2200.00
2018-12-12T08:27:30.205Z,2272.00
2018-12-12T08:28:30.008Z,2312.00
2018-12-12T08:29:30.221Z,2400.00
2018-12-12T08:30:30.204Z,2320.00
2018-12-12T08:31:30.027Z,2340.00
2018-12-12T08:32:30.206Z,2292.00
2018-12-12T08:34:42.222Z,2348.00
2018-12-12T08:35:41.947Z,2312.00
2018-12-12T08:36:41.864Z,2512.00
2018-12-12T08:37:41.748Z,2588.00
2018-12-12T08:38:41.649Z,2460.00
2018-12-12T08:39:41.865Z,2464.00
2018-12-12T08:40:42.078Z,2504.00
2018-12-12T08:41:41.677Z,2528.00
2018-12-12T08:42:41.893Z,2544.00
2018-12-12T08:43:41.793Z,2460.00
2018-12-12T08:44:41.701Z,2648.00
2018-12-12T08:45:41.909Z,2744.00
2018-12-12T08:46:42.124Z,2468.00
2018-12-12T08:47:42.329Z,2780.00
2018-12-12T08:49:55.245Z,2788.00
2018-12-12T08:50:54.952Z,2996.00
2018-12-12T08:51:55.229Z,3016.00
2018-12-12T08:52:54.760Z,3148.00
2018-12-12T08:53:54.683Z,3116.00
2018-12-12T08:54:55.196Z,3128.00
2018-12-12T08:55:55.098Z,3192.00
2018-12-12T08:56:54.696Z,3124.00
2018-12-12T08:57:55.213Z,2992.00
2018-12-12T08:58:55.111Z,3012.00
2018-12-12T08:59:54.709Z,3240.00
2018-12-12T09:00:55.250Z,3100.00
2018-12-12T09:01:54.831Z,3360.00
2018-12-12T09:02:54.739Z,3276.00
2018-12-12T09:05:29.569Z,3552.00
2018-12-12T09:06:28.857Z,3588.00
2018-12-12T09:07:29.707Z,3664.00
2018-12-12T09:08:28.680Z,3612.00
2018-12-12T09:09:28.877Z,3400.00
2018-12-12T09:10:28.817Z,3484.00
2018-12-12T09:11:28.688Z,3688.00
2018-12-12T09:12:28.597Z,3512.00
2018-12-12T09:13:28.804Z,3356.00
2018-12-12T09:14:28.709Z,3624.00
2018-12-12T09:15:28.925Z,3964.00
2018-12-12T09:16:28.489Z,3996.00
2018-12-12T09:17:28.740Z,3564.00
2018-12-12T09:19:51.580Z,3660.00
2018-12-12T09:20:51.185Z,3816.00
2018-12-12T09:21:51.263Z,3556.00
2018-12-12T09:22:50.985Z,3452.00
2018-12-12T09:23:50.891Z,3216.00
2018-12-12T09:24:51.278Z,3184.00
2018-12-12T09:25:51.268Z,3196.00
2018-12-12T09:26:51.268Z,3280.00
2018-12-12T09:27:51.169Z,3400.00
2018-12-12T09:28:51.040Z,3532.00
2018-12-12T09:29:51.301Z,3940.00
2018-12-12T09:30:51.165Z,4264.00
2018-12-12T09:31:51.286Z,4744.00
2018-12-12T09:32:50.970Z,4776.00
2018-12-12T09:35:02.304Z,4864.00
2018-12-12T09:36:02.272Z,4760.00
2018-12-12T09:37:02.306Z,4848.00
2018-12-12T09:38:02.284Z,5068.00
2018-12-12T09:39:02.274Z,5236.00
2018-12-12T09:40:02.282Z,5572.00
2018-12-12T09:41:02.189Z,5932.00
2018-12-12T09:42:02.285Z,6404.00
2018-12-12T09:43:02.610Z,6816.00
2018-12-12T09:44:02.279Z,7332.00
2018-12-12T09:45:02.311Z,7856.00
2018-12-12T09:46:02.304Z,8080.00
2018-12-12T09:47:02.237Z,8740.00
2018-12-12T09:48:02.152Z,9412.00
2018-12-12T09:50:15.296Z,10260.00
2018-12-12T09:51:15.292Z,10376.00
2018-12-12T09:52:15.290Z,10460.00
2018-12-12T09:53:15.302Z,10584.00
2018-12-12T09:54:15.319Z,10680.00
2018-12-12T09:55:16.316Z,10360.00
2018-12-12T09:56:15.327Z,10384.00
2018-12-12T09:57:15.100Z,10296.00
2018-12-12T09:58:15.006Z,9288.00
2018-12-12T09:59:15.232Z,8264.00
2018-12-12T10:00:15.298Z,7424.00
2018-12-12T10:01:15.663Z,7212.00
2018-12-12T10:02:15.309Z,8276.00
2018-12-12T10:03:15.323Z,9572.00
2018-12-12T10:05:27.351Z,10572.00
2018-12-12T10:06:27.299Z,10764.00
2018-12-12T10:07:27.368Z,10748.00
2018-12-12T10:08:27.290Z,10036.00
2018-12-12T10:09:27.169Z,10672.00
2018-12-12T10:10:27.383Z,10368.00
2018-12-12T10:11:27.317Z,12808.00
2018-12-12T10:12:27.194Z,12796.00
2018-12-12T10:13:27.105Z,9780.00
2018-12-12T10:14:27.310Z,9940.00
2018-12-12T10:15:27.217Z,8564.00
2018-12-12T10:16:27.331Z,7232.00
2018-12-12T10:17:27.340Z,7688.00
2018-12-12T10:18:27.326Z,7964.00
2018-12-12T10:20:39.317Z,7908.00
2018-12-12T10:21:39.322Z,8784.00
2018-12-12T10:22:38.851Z,8432.00
2018-12-12T10:23:39.067Z,8392.00
2018-12-12T10:24:38.649Z,7156.00
2018-12-12T10:25:39.185Z,8164.00
2018-12-12T10:26:39.342Z,9180.00
2018-12-12T10:27:38.669Z,10044.00
2018-12-12T10:28:39.194Z,10716.00
2018-12-12T10:29:38.805Z,10748.00
2018-12-12T10:30:39.022Z,10284.00
2018-12-12T10:31:38.603Z,9768.00
2018-12-12T10:32:38.827Z,9912.00
2018-12-12T10:33:39.334Z,10360.00
2018-12-12T10:36:02.337Z,10708.00
2018-12-12T10:37:02.383Z,10572.00
2018-12-12T10:38:02.294Z,9784.00
2018-12-12T10:39:02.195Z,7936.00
2018-12-12T10:40:02.109Z,7680.00
2018-12-12T10:41:02.337Z,7724.00
2018-12-12T10:42:02.349Z,6388.00
2018-12-12T10:43:02.126Z,5036.00
2018-12-12T10:44:02.036Z,5260.00
2018-12-12T10:45:02.254Z,5128.00
2018-12-12T10:46:02.164Z,6724.00
2018-12-12T10:47:02.074Z,6740.00
2018-12-12T10:48:02.365Z,5064.00
2018-12-12T10:49:02.181Z,4096.00
2018-12-12T10:51:13.042Z,6084.00
2018-12-12T10:52:12.620Z,6548.00
2018-12-12T10:53:13.161Z,6488.00
2018-12-12T10:54:12.756Z,7820.00
2018-12-12T10:55:12.653Z,8168.00
2018-12-12T10:56:12.889Z,8064.00
2018-12-12T10:57:13.079Z,7536.00
2018-12-12T10:58:12.684Z,6836.00
2018-12-12T10:59:12.546Z,6900.00
2018-12-12T11:00:13.096Z,8356.00
2018-12-12T11:01:12.715Z,9304.00
2018-12-12T11:02:12.521Z,9780.00
2018-12-12T11:03:12.831Z,9248.00
2018-12-12T11:04:12.738Z,8628.00
2018-12-12T11:06:24.216Z,8200.00
2018-12-12T11:07:24.130Z,6924.00
2018-12-12T11:08:24.324Z,7316.00
2018-12-12T11:09:23.926Z,7500.00
2018-12-12T11:10:23.827Z,7512.00
2018-12-12T11:11:24.350Z,7220.00
2018-12-12T11:12:24.375Z,5888.00
2018-12-12T11:13:23.867Z,4668.00
2018-12-12T11:14:24.086Z,3848.00
2018-12-12T11:15:23.984Z,4156.00
2018-12-12T11:16:23.883Z,4396.00
2018-12-12T11:17:24.103Z,4004.00
2018-12-12T11:18:24.324Z,4164.00
2018-12-12T11:19:24.267Z,3608.00
2018-12-12T11:21:49.401Z,2808.00
2018-12-12T11:22:47.276Z,3792.00
2018-12-12T11:23:47.178Z,4664.00
2018-12-12T11:24:47.390Z,4320.00
2018-12-12T11:25:47.285Z,3872.00
2018-12-12T11:26:47.190Z,4132.00
2018-12-12T11:27:47.402Z,5208.00
2018-12-12T11:28:47.325Z,6728.00
2018-12-12T11:29:47.401Z,7560.00
2018-12-12T11:30:47.130Z,7020.00
2018-12-12T11:31:47.345Z,6536.00
2018-12-12T11:32:47.425Z,7908.00
2018-12-12T11:33:50.435Z,10208.00
2018-12-12T11:34:47.068Z,10680.00
2018-12-12T11:37:02.415Z,13392.00
2018-12-12T11:38:00.446Z,12896.00
2018-12-12T11:39:00.218Z,15488.00
2018-12-12T11:40:00.432Z,17376.00
2018-12-12T11:41:00.300Z,19040.00
2018-12-12T11:42:00.220Z,21600.00
2018-12-12T11:43:00.783Z,31296.00
2018-12-12T11:44:00.335Z,32288.00
2018-12-12T11:45:00.237Z,38368.00
2018-12-12T11:46:00.157Z,28992.00
2018-12-12T11:47:00.362Z,29120.00
2018-12-12T11:48:00.431Z,21632.00
2018-12-12T11:49:00.430Z,34336.00
2018-12-12T11:50:00.378Z,32928.00
2018-12-12T11:52:13.451Z,14680.00
2018-12-12T11:53:13.290Z,15872.00
2018-12-12T11:54:13.216Z,21216.00
2018-12-12T11:55:13.113Z,19776.00
2018-12-12T11:56:13.021Z,30144.00
2018-12-12T11:57:13.239Z,29728.00
2018-12-12T11:58:13.427Z,25472.00
2018-12-12T11:59:13.049Z,23424.00
2018-12-12T12:00:13.423Z,12816.00
2018-12-12T12:01:13.158Z,11436.00
2018-12-12T12:02:13.384Z,11284.00
2018-12-12T12:03:12.980Z,10960.00
2018-12-12T12:04:13.177Z,9704.00
2018-12-12T12:05:13.500Z,8312.00
2018-12-12T12:07:25.427Z,5704.00
2018-12-12T12:08:25.387Z,4712.00
2018-12-12T12:09:25.308Z,4240.00
2018-12-12T12:10:25.190Z,4220.00
2018-12-12T12:11:25.106Z,3964.00
2018-12-12T12:12:25.438Z,3684.00
2018-12-12T12:13:25.231Z,3844.00
2018-12-12T12:14:25.438Z,3788.00
2018-12-12T12:15:25.446Z,3524.00
2018-12-12T12:16:25.348Z,3472.00
2018-12-12T12:17:25.174Z,3412.00
2018-12-12T12:18:25.368Z,3624.00
2018-12-12T12:19:25.448Z,4104.00
2018-12-12T12:20:25.442Z,4592.00
2018-12-12T12:22:48.330Z,6008.00
2018-12-12T12:23:47.937Z,6256.00
2018-12-12T12:24:47.832Z,6356.00
2018-12-12T12:25:47.692Z,5932.00
2018-12-12T12:26:48.270Z,5576.00
2018-12-12T12:27:47.855Z,5760.00
2018-12-12T12:28:48.073Z,6112.00
2018-12-12T12:29:47.668Z,6144.00
2018-12-12T12:30:47.877Z,5976.00
2018-12-12T12:31:47.789Z,5932.00
2018-12-12T12:32:47.616Z,5836.00
2018-12-12T12:33:47.903Z,5840.00
2018-12-12T12:34:48.126Z,5824.00
2018-12-12T12:35:47.582Z,5604.00
2018-12-12T12:37:59.499Z,4304.00
2018-12-12T12:38:58.815Z,4104.00
2018-12-12T12:39:58.625Z,4360.00
2018-12-12T12:40:58.912Z,5228.00
2018-12-12T12:41:58.817Z,6820.00
2018-12-12T12:42:58.589Z,7848.00
2018-12-12T12:43:58.643Z,8136.00
2018-12-12T12:44:59.764Z,8240.00
2018-12-12T12:45:58.565Z,8172.00
2018-12-12T12:46:58.550Z,8488.00
2018-12-12T12:47:59.477Z,8884.00
2018-12-12T12:48:58.594Z,8916.00
2018-12-12T12:49:58.589Z,8028.00
2018-12-12T12:50:58.532Z,7276.00
2018-12-12T12:53:12.521Z,5676.00
2018-12-12T12:54:12.118Z,4680.00
2018-12-12T12:55:12.483Z,3912.00
2018-12-12T12:56:11.928Z,2988.00
2018-12-12T12:57:11.833Z,2408.00
2018-12-12T12:58:12.349Z,2308.00
2018-12-12T12:59:11.954Z,2608.00
2018-12-12T13:00:11.853Z,3088.00
2018-12-12T13:01:12.383Z,3536.00
2018-12-12T13:02:11.974Z,3724.00
2018-12-12T13:03:12.179Z,3328.00
2018-12-12T13:04:11.736Z,2928.00
2018-12-12T13:05:11.996Z,3048.00
2018-12-12T13:06:11.895Z,3700.00
2018-12-12T13:08:23.534Z,4496.00
2018-12-12T13:09:22.985Z,4628.00
2018-12-12T13:10:22.890Z,5128.00
2018-12-12T13:11:22.743Z,5240.00
2018-12-12T13:12:23.517Z,4112.00
2018-12-12T13:13:23.016Z,2956.00
2018-12-12T13:14:22.712Z,2816.00
2018-12-12T13:15:22.721Z,3036.00
2018-12-12T13:16:22.931Z,3088.00
2018-12-12T13:17:22.834Z,3308.00
2018-12-12T13:18:22.738Z,3700.00
2018-12-12T13:19:23.257Z,4024.00
2018-12-12T13:20:22.855Z,4100.00
2018-12-12T13:21:22.650Z,4048.00
2018-12-12T13:23:33.549Z,3592.00
2018-12-12T13:24:33.828Z,3304.00
2018-12-12T13:25:33.393Z,3136.00
2018-12-12T13:26:33.520Z,3116.00
2018-12-12T13:27:33.510Z,3200.00
2018-12-12T13:28:33.450Z,3288.00
2018-12-12T13:29:33.517Z,3316.00
2018-12-12T13:30:33.516Z,3444.00
2018-12-12T13:31:33.475Z,3596.00
2018-12-12T13:32:33.378Z,3760.00
2018-12-12T13:33:33.517Z,3920.00
2018-12-12T13:34:33.494Z,4028.00
2018-12-12T13:35:33.526Z,4068.00
2018-12-12T13:36:33.310Z,4104.00
2018-12-12T13:38:45.464Z,4296.00
2018-12-12T13:39:45.577Z,4356.00
2018-12-12T13:40:45.834Z,4456.00
2018-12-12T13:41:44.792Z,4572.00
2018-12-12T13:42:45.089Z,4716.00
2018-12-12T13:43:45.267Z,4956.00
2018-12-12T13:44:44.767Z,5244.00
2018-12-12T13:45:44.742Z,5472.00
2018-12-12T13:46:45.533Z,5604.00
2018-12-12T13:47:44.869Z,5840.00
2018-12-12T13:48:44.710Z,6096.00
2018-12-12T13:49:44.979Z,6300.00